N4LN LIRA-LIMJ
Flight info
| Callsign | N4LN |
|---|---|
| Flight time | 1h 20m |
| Altitude | 10000 |
| Route | OST2F/33 GILIO M729 IDONA IDON1S/10 |
| Aircraft | AEST/L-G/C |
Departure
| Time | 2026-04-22 10:19 |
|---|---|
| Airport | Ciampino–G. B. Pastine International Airport (LIRA) |
Arrival
| Time | 2026-04-22 11:39 |
|---|---|
| Airport | Genoa Cristoforo Colombo Airport (LIMJ) |
| Time | Latitude | Longitude | Altitude | Speed | Heading |
|---|---|---|---|---|---|
| 2026-04-22 09:55 | 41.79601 | 12.59270 | 401 ft | 0 kts | 51° |
| 2026-04-22 10:11 | 41.79618 | 12.59283 | 401 ft | 8 kts | 357° |
| 2026-04-22 10:11 | 41.79680 | 12.59271 | 401 ft | 12 kts | 37° |
| 2026-04-22 10:12 | 41.79643 | 12.59351 | 401 ft | 13 kts | 142° |
| 2026-04-22 10:12 | 41.79560 | 12.59429 | 401 ft | 16 kts | 155° |
| 2026-04-22 10:12 | 41.79528 | 12.59559 | 401 ft | 14 kts | 130° |
| 2026-04-22 10:12 | 41.79477 | 12.59598 | 401 ft | 13 kts | 152° |
| 2026-04-22 10:13 | 41.79375 | 12.59671 | 402 ft | 20 kts | 151° |
| 2026-04-22 10:13 | 41.79235 | 12.59765 | 402 ft | 25 kts | 152° |
| 2026-04-22 10:13 | 41.79112 | 12.59850 | 402 ft | 15 kts | 152° |
| 2026-04-22 10:13 | 41.79043 | 12.59896 | 402 ft | 0 kts | 144° |
| 2026-04-22 10:14 | 41.79040 | 12.59898 | 402 ft | 5 kts | 164° |
| 2026-04-22 10:14 | 41.79001 | 12.59928 | 402 ft | 4 kts | 53° |
| 2026-04-22 10:14 | 41.79007 | 12.59934 | 402 ft | 0 kts | 43° |
| 2026-04-22 10:17 | 41.79019 | 12.59957 | 403 ft | 10 kts | 58° |
| 2026-04-22 10:17 | 41.79069 | 12.60056 | 412 ft | 15 kts | 28° |
| 2026-04-22 10:18 | 41.79262 | 12.59949 | 412 ft | 66 kts | 333° |
| 2026-04-22 10:18 | 41.79821 | 12.59624 | 487 ft | 98 kts | 337° |
| 2026-04-22 10:18 | 41.80493 | 12.59130 | 493 ft | 130 kts | 324° |
| 2026-04-22 10:18 | 41.81284 | 12.58592 | 838 ft | 138 kts | 327° |
| 2026-04-22 10:19 | 41.82109 | 12.57880 | 1131 ft | 145 kts | 335° |
| 2026-04-22 10:19 | 41.83036 | 12.57283 | 1375 ft | 152 kts | 336° |
| 2026-04-22 10:19 | 41.84000 | 12.56633 | 1626 ft | 156 kts | 335° |
| 2026-04-22 10:19 | 41.84961 | 12.55978 | 1968 ft | 154 kts | 335° |
| 2026-04-22 10:20 | 41.85914 | 12.55335 | 2302 ft | 152 kts | 335° |
| 2026-04-22 10:20 | 41.86935 | 12.55004 | 2609 ft | 150 kts | 345° |
| 2026-04-22 10:20 | 41.87788 | 12.54286 | 2901 ft | 147 kts | 306° |
| 2026-04-22 10:20 | 41.88061 | 12.53017 | 3241 ft | 144 kts | 264° |
| 2026-04-22 10:21 | 41.87888 | 12.51698 | 3598 ft | 144 kts | 259° |
| 2026-04-22 10:21 | 41.87803 | 12.50364 | 3949 ft | 144 kts | 275° |
| 2026-04-22 10:21 | 41.88079 | 12.49081 | 4270 ft | 145 kts | 296° |
| 2026-04-22 10:21 | 41.88596 | 12.47922 | 4587 ft | 145 kts | 294° |
| 2026-04-22 10:22 | 41.88782 | 12.46600 | 4888 ft | 146 kts | 261° |
| 2026-04-22 10:22 | 41.88302 | 12.45446 | 5192 ft | 145 kts | 220° |
| 2026-04-22 10:22 | 41.87489 | 12.44645 | 5513 ft | 145 kts | 219° |
| 2026-04-22 10:22 | 41.86831 | 12.43640 | 5816 ft | 144 kts | 242° |
| 2026-04-22 10:23 | 41.86451 | 12.42400 | 6117 ft | 143 kts | 250° |
| 2026-04-22 10:23 | 41.86095 | 12.41148 | 6389 ft | 144 kts | 249° |
| 2026-04-22 10:23 | 41.85715 | 12.39903 | 6662 ft | 144 kts | 248° |
| 2026-04-22 10:23 | 41.85319 | 12.38663 | 6936 ft | 144 kts | 248° |
| 2026-04-22 10:24 | 41.84921 | 12.37444 | 7196 ft | 144 kts | 247° |
| 2026-04-22 10:24 | 41.84516 | 12.36218 | 7453 ft | 144 kts | 247° |
| 2026-04-22 10:24 | 41.84108 | 12.34995 | 7695 ft | 144 kts | 247° |
| 2026-04-22 10:24 | 41.83697 | 12.33762 | 7925 ft | 145 kts | 248° |
| 2026-04-22 10:25 | 41.83286 | 12.32527 | 8156 ft | 145 kts | 248° |
| 2026-04-22 10:25 | 41.82876 | 12.31298 | 8381 ft | 144 kts | 248° |
| 2026-04-22 10:25 | 41.82469 | 12.30074 | 8597 ft | 144 kts | 248° |
| 2026-04-22 10:25 | 41.82060 | 12.28845 | 8806 ft | 144 kts | 248° |
| 2026-04-22 10:26 | 41.81651 | 12.27615 | 9015 ft | 144 kts | 248° |
| 2026-04-22 10:26 | 41.81243 | 12.26389 | 9218 ft | 144 kts | 249° |
| 2026-04-22 10:26 | 41.80832 | 12.25165 | 9416 ft | 143 kts | 249° |
| 2026-04-22 10:26 | 41.80656 | 12.23883 | 9623 ft | 140 kts | 282° |
| 2026-04-22 10:27 | 41.80996 | 12.22709 | 9834 ft | 136 kts | 298° |
| 2026-04-22 10:27 | 41.81463 | 12.21622 | 10026 ft | 134 kts | 299° |
| 2026-04-22 10:27 | 41.81946 | 12.20507 | 10068 ft | 143 kts | 298° |
| 2026-04-22 10:27 | 41.82462 | 12.19294 | 10033 ft | 156 kts | 298° |
| 2026-04-22 10:28 | 41.83018 | 12.17968 | 9991 ft | 168 kts | 298° |
| 2026-04-22 10:28 | 41.83604 | 12.16566 | 9981 ft | 175 kts | 298° |
| 2026-04-22 10:28 | 41.84212 | 12.15122 | 9989 ft | 180 kts | 298° |
| 2026-04-22 10:28 | 41.84837 | 12.13647 | 9985 ft | 184 kts | 299° |
| 2026-04-22 10:29 | 41.85475 | 12.12152 | 9988 ft | 186 kts | 299° |
| 2026-04-22 10:29 | 41.86129 | 12.10634 | 9977 ft | 189 kts | 299° |
| 2026-04-22 10:29 | 41.86789 | 12.09108 | 9992 ft | 189 kts | 299° |
| 2026-04-22 10:29 | 41.87456 | 12.07573 | 9989 ft | 191 kts | 299° |
| 2026-04-22 10:30 | 41.88119 | 12.06051 | 9988 ft | 192 kts | 299° |
| 2026-04-22 10:30 | 41.88793 | 12.04503 | 9987 ft | 192 kts | 300° |
| 2026-04-22 10:30 | 41.89471 | 12.02949 | 9986 ft | 193 kts | 300° |
| 2026-04-22 10:30 | 41.90153 | 12.01387 | 9987 ft | 193 kts | 299° |
| 2026-04-22 10:31 | 41.90833 | 11.99828 | 9988 ft | 194 kts | 300° |
| 2026-04-22 10:31 | 41.91515 | 11.98263 | 9987 ft | 194 kts | 299° |
| 2026-04-22 10:31 | 41.92197 | 11.96696 | 9985 ft | 194 kts | 300° |
| 2026-04-22 10:31 | 41.92871 | 11.95148 | 9986 ft | 194 kts | 299° |
| 2026-04-22 10:32 | 41.93553 | 11.93578 | 9987 ft | 194 kts | 299° |
| 2026-04-22 10:32 | 41.94235 | 11.92007 | 9987 ft | 195 kts | 299° |
| 2026-04-22 10:32 | 41.94918 | 11.90435 | 9988 ft | 195 kts | 299° |
| 2026-04-22 10:32 | 41.95601 | 11.88861 | 9988 ft | 195 kts | 299° |
| 2026-04-22 10:33 | 41.96233 | 11.87400 | 9987 ft | 195 kts | 299° |
| 2026-04-22 10:33 | 41.96893 | 11.85876 | 9984 ft | 195 kts | 299° |
| 2026-04-22 10:33 | 41.97575 | 11.84302 | 9986 ft | 195 kts | 299° |
| 2026-04-22 10:33 | 41.98256 | 11.82727 | 9984 ft | 195 kts | 299° |
| 2026-04-22 10:34 | 41.98938 | 11.81150 | 9978 ft | 195 kts | 299° |
| 2026-04-22 10:34 | 41.99621 | 11.79572 | 9977 ft | 195 kts | 299° |
| 2026-04-22 10:34 | 42.00302 | 11.77997 | 9977 ft | 195 kts | 299° |
| 2026-04-22 10:34 | 42.00974 | 11.76442 | 9977 ft | 195 kts | 299° |
| 2026-04-22 10:35 | 42.01653 | 11.74865 | 9977 ft | 195 kts | 299° |
| 2026-04-22 10:35 | 42.02333 | 11.73285 | 9976 ft | 195 kts | 299° |
| 2026-04-22 10:35 | 42.03012 | 11.71710 | 9977 ft | 195 kts | 299° |
| 2026-04-22 10:35 | 42.03692 | 11.70135 | 9976 ft | 195 kts | 299° |
| 2026-04-22 10:36 | 42.04372 | 11.68554 | 9975 ft | 195 kts | 299° |
| 2026-04-22 10:36 | 42.05053 | 11.66969 | 9976 ft | 196 kts | 299° |
| 2026-04-22 10:36 | 42.05733 | 11.65389 | 9977 ft | 196 kts | 300° |
| 2026-04-22 10:36 | 42.06415 | 11.63802 | 9976 ft | 196 kts | 300° |
| 2026-04-22 10:37 | 42.07096 | 11.62217 | 9978 ft | 195 kts | 300° |
| 2026-04-22 10:37 | 42.08460 | 11.59045 | 9978 ft | 196 kts | 300° |
| 2026-04-22 10:37 | 42.09141 | 11.57461 | 9978 ft | 196 kts | 300° |
| 2026-04-22 10:38 | 42.09822 | 11.55875 | 9973 ft | 196 kts | 300° |
| 2026-04-22 10:38 | 42.10502 | 11.54290 | 9972 ft | 196 kts | 300° |
| 2026-04-22 10:38 | 42.11183 | 11.52700 | 9975 ft | 196 kts | 300° |
| 2026-04-22 10:38 | 42.11854 | 11.51134 | 9977 ft | 196 kts | 300° |
| 2026-04-22 10:39 | 42.12535 | 11.49543 | 9977 ft | 196 kts | 300° |
| 2026-04-22 10:39 | 42.13213 | 11.47956 | 9978 ft | 196 kts | 300° |
| 2026-04-22 10:39 | 42.13891 | 11.46369 | 9976 ft | 196 kts | 300° |
| 2026-04-22 10:39 | 42.14569 | 11.44777 | 9977 ft | 196 kts | 300° |
| 2026-04-22 10:40 | 42.15248 | 11.43190 | 9978 ft | 196 kts | 300° |
| 2026-04-22 10:40 | 42.15928 | 11.41600 | 9977 ft | 196 kts | 300° |
| 2026-04-22 10:40 | 42.16608 | 11.40006 | 9976 ft | 196 kts | 300° |
| 2026-04-22 10:40 | 42.17287 | 11.38413 | 9977 ft | 196 kts | 300° |
| 2026-04-22 10:41 | 42.17963 | 11.36823 | 9977 ft | 196 kts | 300° |
| 2026-04-22 10:41 | 42.18642 | 11.35231 | 9977 ft | 196 kts | 300° |
| 2026-04-22 10:41 | 42.19319 | 11.33644 | 9978 ft | 196 kts | 300° |
| 2026-04-22 10:41 | 42.19996 | 11.32054 | 9982 ft | 195 kts | 300° |
| 2026-04-22 10:42 | 42.20673 | 11.30462 | 9986 ft | 195 kts | 300° |
| 2026-04-22 10:42 | 42.21349 | 11.28873 | 9987 ft | 195 kts | 300° |
| 2026-04-22 10:42 | 42.22024 | 11.27282 | 9987 ft | 196 kts | 300° |
| 2026-04-22 10:42 | 42.22690 | 11.25706 | 9987 ft | 196 kts | 300° |
| 2026-04-22 10:43 | 42.23365 | 11.24116 | 9988 ft | 196 kts | 300° |
| 2026-04-22 10:43 | 42.24043 | 11.22521 | 9987 ft | 196 kts | 300° |
| 2026-04-22 10:43 | 42.24719 | 11.20928 | 9986 ft | 196 kts | 300° |
| 2026-04-22 10:43 | 42.25395 | 11.19332 | 9986 ft | 196 kts | 300° |
| 2026-04-22 10:44 | 42.26072 | 11.17737 | 9987 ft | 196 kts | 300° |
| 2026-04-22 10:44 | 42.26749 | 11.16137 | 9987 ft | 196 kts | 300° |
| 2026-04-22 10:44 | 42.27413 | 11.14568 | 9983 ft | 196 kts | 300° |
| 2026-04-22 10:44 | 42.28099 | 11.12948 | 9978 ft | 196 kts | 300° |
| 2026-04-22 10:45 | 42.28772 | 11.11354 | 9985 ft | 195 kts | 300° |
| 2026-04-22 10:45 | 42.29438 | 11.09776 | 9987 ft | 195 kts | 300° |
| 2026-04-22 10:45 | 42.30114 | 11.08175 | 9985 ft | 196 kts | 300° |
| 2026-04-22 10:45 | 42.30786 | 11.06580 | 9985 ft | 196 kts | 300° |
| 2026-04-22 10:46 | 42.31459 | 11.04982 | 9987 ft | 196 kts | 300° |
| 2026-04-22 10:46 | 42.32132 | 11.03385 | 9989 ft | 196 kts | 300° |
| 2026-04-22 10:46 | 42.32806 | 11.01787 | 9992 ft | 196 kts | 300° |
| 2026-04-22 10:46 | 42.33479 | 11.00191 | 9997 ft | 195 kts | 300° |
| 2026-04-22 10:47 | 42.34149 | 10.98597 | 9996 ft | 195 kts | 300° |
| 2026-04-22 10:47 | 42.34819 | 10.97001 | 9994 ft | 195 kts | 300° |
| 2026-04-22 10:47 | 42.35488 | 10.95410 | 9995 ft | 195 kts | 300° |
| 2026-04-22 10:47 | 42.36184 | 10.93841 | 9997 ft | 195 kts | 302° |
| 2026-04-22 10:48 | 42.36936 | 10.92319 | 10003 ft | 194 kts | 307° |
| 2026-04-22 10:48 | 42.37763 | 10.90871 | 10003 ft | 194 kts | 309° |
| 2026-04-22 10:48 | 42.38643 | 10.89478 | 10002 ft | 195 kts | 311° |
| 2026-04-22 10:48 | 42.39552 | 10.88154 | 10000 ft | 195 kts | 313° |
| 2026-04-22 10:49 | 42.40500 | 10.86840 | 10005 ft | 195 kts | 314° |
| 2026-04-22 10:49 | 42.41452 | 10.85534 | 10007 ft | 195 kts | 314° |
| 2026-04-22 10:49 | 42.42402 | 10.84224 | 10003 ft | 195 kts | 314° |
| 2026-04-22 10:49 | 42.43345 | 10.82906 | 10002 ft | 195 kts | 314° |
| 2026-04-22 10:50 | 42.44283 | 10.81579 | 9999 ft | 195 kts | 313° |
| 2026-04-22 10:50 | 42.45216 | 10.80246 | 9997 ft | 195 kts | 313° |
| 2026-04-22 10:50 | 42.46149 | 10.78902 | 9995 ft | 195 kts | 313° |
| 2026-04-22 10:50 | 42.47078 | 10.77557 | 9995 ft | 195 kts | 313° |
| 2026-04-22 10:51 | 42.48005 | 10.76213 | 9998 ft | 195 kts | 313° |
| 2026-04-22 10:51 | 42.48928 | 10.74871 | 10003 ft | 195 kts | 313° |
| 2026-04-22 10:51 | 42.49851 | 10.73527 | 10004 ft | 195 kts | 313° |
| 2026-04-22 10:51 | 42.50776 | 10.72179 | 10003 ft | 195 kts | 313° |
| 2026-04-22 10:52 | 42.51689 | 10.70851 | 10004 ft | 195 kts | 313° |
| 2026-04-22 10:52 | 42.52611 | 10.69507 | 10007 ft | 195 kts | 313° |
| 2026-04-22 10:52 | 42.53536 | 10.68160 | 10002 ft | 195 kts | 313° |
| 2026-04-22 10:52 | 42.54460 | 10.66811 | 10002 ft | 195 kts | 313° |
| 2026-04-22 10:53 | 42.55392 | 10.65450 | 10002 ft | 195 kts | 313° |
| 2026-04-22 10:53 | 42.56316 | 10.64104 | 10002 ft | 195 kts | 313° |
| 2026-04-22 10:53 | 42.57242 | 10.62753 | 10008 ft | 195 kts | 313° |
| 2026-04-22 10:53 | 42.58167 | 10.61404 | 10007 ft | 195 kts | 313° |
| 2026-04-22 10:54 | 42.58779 | 10.60511 | 10007 ft | 195 kts | 313° |
| 2026-04-22 10:54 | 42.59705 | 10.59161 | 10007 ft | 195 kts | 313° |
| 2026-04-22 10:54 | 42.60926 | 10.57374 | 10010 ft | 195 kts | 313° |
| 2026-04-22 10:54 | 42.61847 | 10.56028 | 10016 ft | 195 kts | 313° |
| 2026-04-22 10:55 | 42.62470 | 10.55117 | 10012 ft | 195 kts | 313° |
| 2026-04-22 10:55 | 42.63391 | 10.53770 | 10015 ft | 195 kts | 313° |
| 2026-04-22 10:55 | 42.64312 | 10.52420 | 10012 ft | 195 kts | 313° |
| 2026-04-22 10:55 | 42.65222 | 10.51086 | 10011 ft | 196 kts | 313° |
| 2026-04-22 10:56 | 42.66150 | 10.49728 | 10014 ft | 196 kts | 313° |
| 2026-04-22 10:56 | 42.67077 | 10.48371 | 10011 ft | 196 kts | 313° |
| 2026-04-22 10:56 | 42.68006 | 10.47009 | 10016 ft | 196 kts | 313° |
| 2026-04-22 10:56 | 42.68934 | 10.45649 | 10012 ft | 196 kts | 313° |
| 2026-04-22 10:57 | 42.69862 | 10.44288 | 10012 ft | 196 kts | 313° |
| 2026-04-22 10:57 | 42.70788 | 10.42928 | 10012 ft | 196 kts | 313° |
| 2026-04-22 10:57 | 42.71718 | 10.41562 | 10015 ft | 197 kts | 313° |
| 2026-04-22 10:57 | 42.72651 | 10.40192 | 10011 ft | 198 kts | 313° |
| 2026-04-22 10:58 | 42.73579 | 10.38812 | 10013 ft | 197 kts | 314° |
| 2026-04-22 10:58 | 42.74608 | 10.37573 | 10016 ft | 197 kts | 323° |
| 2026-04-22 10:58 | 42.75764 | 10.36562 | 10010 ft | 198 kts | 330° |
| 2026-04-22 10:58 | 42.76997 | 10.35726 | 10017 ft | 198 kts | 334° |
| 2026-04-22 10:59 | 42.78237 | 10.34960 | 10012 ft | 198 kts | 334° |
| 2026-04-22 10:59 | 42.79495 | 10.34194 | 10011 ft | 198 kts | 334° |
| 2026-04-22 10:59 | 42.80747 | 10.33414 | 10011 ft | 198 kts | 334° |
| 2026-04-22 10:59 | 42.82050 | 10.32818 | 10006 ft | 198 kts | 347° |
| 2026-04-22 11:00 | 42.83396 | 10.32415 | 10020 ft | 198 kts | 342° |
| 2026-04-22 11:00 | 42.84689 | 10.31759 | 10016 ft | 198 kts | 334° |
| 2026-04-22 11:00 | 42.85895 | 10.30864 | 10015 ft | 198 kts | 327° |
| 2026-04-22 11:00 | 42.87036 | 10.29813 | 10015 ft | 198 kts | 324° |
| 2026-04-22 11:01 | 42.88145 | 10.28699 | 10012 ft | 198 kts | 323° |
| 2026-04-22 11:01 | 42.89257 | 10.27599 | 10014 ft | 197 kts | 325° |
| 2026-04-22 11:01 | 42.90397 | 10.26553 | 10024 ft | 197 kts | 327° |
| 2026-04-22 11:01 | 42.91545 | 10.25571 | 10026 ft | 197 kts | 328° |
| 2026-04-22 11:02 | 42.92726 | 10.24622 | 10024 ft | 197 kts | 329° |
| 2026-04-22 11:02 | 42.93927 | 10.23706 | 10023 ft | 197 kts | 331° |
| 2026-04-22 11:02 | 42.95134 | 10.22816 | 10022 ft | 197 kts | 331° |
| 2026-04-22 11:02 | 42.96344 | 10.21930 | 10022 ft | 197 kts | 331° |
| 2026-04-22 11:03 | 42.97555 | 10.21039 | 10022 ft | 197 kts | 331° |
| 2026-04-22 11:03 | 42.98765 | 10.20143 | 10026 ft | 197 kts | 331° |
| 2026-04-22 11:03 | 42.99971 | 10.19242 | 10023 ft | 197 kts | 331° |
| 2026-04-22 11:03 | 43.01178 | 10.18334 | 10022 ft | 198 kts | 331° |
| 2026-04-22 11:04 | 43.02387 | 10.17421 | 10022 ft | 198 kts | 330° |
| 2026-04-22 11:04 | 43.03595 | 10.16505 | 10022 ft | 198 kts | 331° |
| 2026-04-22 11:04 | 43.04802 | 10.15587 | 10025 ft | 198 kts | 331° |
| 2026-04-22 11:04 | 43.06010 | 10.14670 | 10023 ft | 198 kts | 331° |
| 2026-04-22 11:05 | 43.07202 | 10.13764 | 10026 ft | 198 kts | 331° |
| 2026-04-22 11:05 | 43.08410 | 10.12844 | 10025 ft | 198 kts | 331° |
| 2026-04-22 11:05 | 43.09613 | 10.11926 | 10031 ft | 198 kts | 331° |
| 2026-04-22 11:05 | 43.10819 | 10.11006 | 10032 ft | 198 kts | 331° |
| 2026-04-22 11:06 | 43.12024 | 10.10088 | 10033 ft | 198 kts | 331° |
| 2026-04-22 11:06 | 43.13231 | 10.09167 | 10034 ft | 199 kts | 331° |
| 2026-04-22 11:06 | 43.14438 | 10.08246 | 10031 ft | 199 kts | 331° |
| 2026-04-22 11:06 | 43.15646 | 10.07323 | 10031 ft | 199 kts | 331° |
| 2026-04-22 11:07 | 43.16854 | 10.06401 | 10032 ft | 199 kts | 331° |
| 2026-04-22 11:07 | 43.18063 | 10.05478 | 10032 ft | 199 kts | 331° |
| 2026-04-22 11:07 | 43.19272 | 10.04557 | 10031 ft | 199 kts | 331° |
| 2026-04-22 11:07 | 43.20488 | 10.03630 | 10033 ft | 200 kts | 331° |
| 2026-04-22 11:08 | 43.21685 | 10.02716 | 10033 ft | 200 kts | 331° |
| 2026-04-22 11:08 | 43.22899 | 10.01787 | 10030 ft | 200 kts | 331° |
| 2026-04-22 11:08 | 43.24111 | 10.00858 | 10032 ft | 199 kts | 331° |
| 2026-04-22 11:08 | 43.25321 | 9.99928 | 10032 ft | 199 kts | 332° |
| 2026-04-22 11:09 | 43.26532 | 9.99002 | 10031 ft | 199 kts | 332° |
| 2026-04-22 11:09 | 43.27742 | 9.98078 | 10030 ft | 200 kts | 332° |
| 2026-04-22 11:09 | 43.28958 | 9.97148 | 10031 ft | 200 kts | 332° |
| 2026-04-22 11:09 | 43.30173 | 9.96219 | 10030 ft | 200 kts | 332° |
| 2026-04-22 11:10 | 43.31387 | 9.95288 | 10031 ft | 200 kts | 332° |
| 2026-04-22 11:10 | 43.32603 | 9.94353 | 10032 ft | 200 kts | 332° |
| 2026-04-22 11:10 | 43.33819 | 9.93421 | 10031 ft | 200 kts | 332° |
| 2026-04-22 11:10 | 43.35040 | 9.92486 | 10029 ft | 200 kts | 332° |
| 2026-04-22 11:11 | 43.36256 | 9.91554 | 10032 ft | 200 kts | 332° |
| 2026-04-22 11:11 | 43.37475 | 9.90618 | 10032 ft | 200 kts | 332° |
| 2026-04-22 11:11 | 43.38690 | 9.89683 | 10024 ft | 201 kts | 332° |
| 2026-04-22 11:11 | 43.39893 | 9.88752 | 10029 ft | 201 kts | 332° |
| 2026-04-22 11:12 | 43.41125 | 9.87800 | 10034 ft | 200 kts | 332° |
| 2026-04-22 11:12 | 43.42327 | 9.86872 | 10036 ft | 201 kts | 332° |
| 2026-04-22 11:12 | 43.43544 | 9.85932 | 10036 ft | 201 kts | 332° |
| 2026-04-22 11:12 | 43.44766 | 9.84990 | 10035 ft | 201 kts | 332° |
| 2026-04-22 11:13 | 43.45988 | 9.84046 | 10034 ft | 201 kts | 332° |
| 2026-04-22 11:13 | 43.47214 | 9.83097 | 10036 ft | 202 kts | 332° |
| 2026-04-22 11:13 | 43.48440 | 9.82149 | 10035 ft | 202 kts | 332° |
| 2026-04-22 11:13 | 43.49668 | 9.81200 | 10029 ft | 202 kts | 332° |
| 2026-04-22 11:14 | 43.50891 | 9.80251 | 10031 ft | 202 kts | 332° |
| 2026-04-22 11:14 | 43.52115 | 9.79301 | 10033 ft | 202 kts | 332° |
| 2026-04-22 11:14 | 43.53336 | 9.78351 | 10034 ft | 202 kts | 332° |
| 2026-04-22 11:14 | 43.54557 | 9.77404 | 10031 ft | 202 kts | 332° |
| 2026-04-22 11:15 | 43.55767 | 9.76467 | 10032 ft | 201 kts | 332° |
| 2026-04-22 11:15 | 43.56988 | 9.75519 | 10033 ft | 201 kts | 332° |
| 2026-04-22 11:15 | 43.58209 | 9.74572 | 10032 ft | 201 kts | 332° |
| 2026-04-22 11:15 | 43.59430 | 9.73627 | 10033 ft | 201 kts | 332° |
| 2026-04-22 11:16 | 43.60649 | 9.72681 | 10030 ft | 201 kts | 332° |
| 2026-04-22 11:16 | 43.61870 | 9.71735 | 10033 ft | 201 kts | 332° |
| 2026-04-22 11:16 | 43.63089 | 9.70789 | 10032 ft | 201 kts | 332° |
| 2026-04-22 11:16 | 43.64312 | 9.69841 | 10033 ft | 201 kts | 332° |
| 2026-04-22 11:17 | 43.65534 | 9.68892 | 10033 ft | 201 kts | 332° |
| 2026-04-22 11:17 | 43.66754 | 9.67944 | 10037 ft | 201 kts | 332° |
| 2026-04-22 11:17 | 43.67970 | 9.66995 | 10041 ft | 201 kts | 332° |
| 2026-04-22 11:17 | 43.69188 | 9.66045 | 10043 ft | 201 kts | 332° |
| 2026-04-22 11:18 | 43.70405 | 9.65096 | 10041 ft | 201 kts | 332° |
| 2026-04-22 11:18 | 43.71608 | 9.64158 | 10040 ft | 201 kts | 332° |
| 2026-04-22 11:18 | 43.72843 | 9.63195 | 10042 ft | 201 kts | 332° |
| 2026-04-22 11:18 | 43.74048 | 9.62255 | 10042 ft | 201 kts | 332° |
| 2026-04-22 11:19 | 43.75268 | 9.61303 | 10042 ft | 201 kts | 332° |
| 2026-04-22 11:19 | 43.76484 | 9.60353 | 10040 ft | 201 kts | 332° |
| 2026-04-22 11:19 | 43.77709 | 9.59397 | 10042 ft | 201 kts | 332° |
| 2026-04-22 11:19 | 43.78927 | 9.58445 | 10040 ft | 201 kts | 332° |
| 2026-04-22 11:20 | 43.80147 | 9.57491 | 10040 ft | 201 kts | 332° |
| 2026-04-22 11:20 | 43.81366 | 9.56538 | 10041 ft | 201 kts | 332° |
| 2026-04-22 11:20 | 43.82588 | 9.55583 | 10042 ft | 201 kts | 332° |
| 2026-04-22 11:20 | 43.83808 | 9.54628 | 10040 ft | 201 kts | 332° |
| 2026-04-22 11:21 | 43.85027 | 9.53674 | 10042 ft | 201 kts | 332° |
| 2026-04-22 11:21 | 43.86242 | 9.52721 | 10042 ft | 201 kts | 332° |
| 2026-04-22 11:21 | 43.87442 | 9.51778 | 10039 ft | 201 kts | 332° |
| 2026-04-22 11:21 | 43.88655 | 9.50825 | 10041 ft | 201 kts | 332° |
| 2026-04-22 11:22 | 43.89875 | 9.49867 | 10040 ft | 201 kts | 332° |
| 2026-04-22 11:22 | 43.91090 | 9.48913 | 10041 ft | 201 kts | 332° |
| 2026-04-22 11:22 | 43.92294 | 9.47934 | 10038 ft | 200 kts | 325° |
| 2026-04-22 11:22 | 43.93247 | 9.46543 | 10037 ft | 201 kts | 302° |
| 2026-04-22 11:23 | 43.93614 | 9.44674 | 10035 ft | 204 kts | 274° |
| 2026-04-22 11:23 | 43.93605 | 9.42679 | 10012 ft | 209 kts | 274° |
| 2026-04-22 11:23 | 43.93617 | 9.40616 | 9799 ft | 218 kts | 274° |
| 2026-04-22 11:23 | 43.93675 | 9.38499 | 9640 ft | 222 kts | 281° |
| 2026-04-22 11:24 | 43.93948 | 9.36383 | 9450 ft | 225 kts | 284° |
| 2026-04-22 11:24 | 43.94260 | 9.34230 | 9228 ft | 229 kts | 284° |
| 2026-04-22 11:24 | 43.94723 | 9.32097 | 8999 ft | 233 kts | 299° |
| 2026-04-22 11:24 | 43.95508 | 9.30159 | 8754 ft | 235 kts | 304° |
| 2026-04-22 11:25 | 43.96371 | 9.28190 | 8507 ft | 236 kts | 304° |
| 2026-04-22 11:25 | 43.97223 | 9.26278 | 8294 ft | 236 kts | 304° |
| 2026-04-22 11:25 | 43.98085 | 9.24344 | 8086 ft | 235 kts | 304° |
| 2026-04-22 11:25 | 43.98936 | 9.22423 | 7878 ft | 230 kts | 304° |
| 2026-04-22 11:26 | 43.99769 | 9.20551 | 7625 ft | 225 kts | 304° |
| 2026-04-22 11:26 | 44.00590 | 9.18709 | 7342 ft | 223 kts | 304° |
| 2026-04-22 11:26 | 44.01402 | 9.16867 | 7054 ft | 223 kts | 304° |
| 2026-04-22 11:26 | 44.02206 | 9.15038 | 6770 ft | 222 kts | 304° |
| 2026-04-22 11:27 | 44.03008 | 9.13213 | 6493 ft | 221 kts | 304° |
| 2026-04-22 11:27 | 44.03811 | 9.11401 | 6238 ft | 220 kts | 304° |
| 2026-04-22 11:27 | 44.04614 | 9.09589 | 5970 ft | 219 kts | 304° |
| 2026-04-22 11:27 | 44.05412 | 9.07787 | 5707 ft | 219 kts | 304° |
| 2026-04-22 11:28 | 44.06211 | 9.05984 | 5438 ft | 218 kts | 304° |
| 2026-04-22 11:28 | 44.07012 | 9.04191 | 5170 ft | 218 kts | 304° |
| 2026-04-22 11:28 | 44.07813 | 9.02401 | 4907 ft | 217 kts | 304° |
| 2026-04-22 11:28 | 44.08606 | 9.00643 | 4650 ft | 217 kts | 304° |
| 2026-04-22 11:29 | 44.09409 | 8.98868 | 4396 ft | 216 kts | 304° |
| 2026-04-22 11:29 | 44.10214 | 8.97098 | 4147 ft | 216 kts | 304° |
| 2026-04-22 11:29 | 44.11020 | 8.95333 | 3905 ft | 215 kts | 304° |
| 2026-04-22 11:29 | 44.11825 | 8.93579 | 3666 ft | 215 kts | 304° |
| 2026-04-22 11:30 | 44.12629 | 8.91832 | 3429 ft | 214 kts | 304° |
| 2026-04-22 11:30 | 44.13432 | 8.90090 | 3198 ft | 213 kts | 304° |
| 2026-04-22 11:30 | 44.14237 | 8.88356 | 2992 ft | 211 kts | 304° |
| 2026-04-22 11:30 | 44.15012 | 8.86684 | 3020 ft | 200 kts | 304° |
| 2026-04-22 11:31 | 44.15747 | 8.85092 | 3059 ft | 191 kts | 304° |
| 2026-04-22 11:31 | 44.16459 | 8.83550 | 3000 ft | 191 kts | 304° |
| 2026-04-22 11:31 | 44.17194 | 8.81979 | 2822 ft | 196 kts | 309° |
| 2026-04-22 11:31 | 44.18173 | 8.80686 | 2655 ft | 197 kts | 323° |
| 2026-04-22 11:32 | 44.19247 | 8.79485 | 2476 ft | 198 kts | 323° |
| 2026-04-22 11:32 | 44.20327 | 8.78277 | 2319 ft | 200 kts | 323° |
| 2026-04-22 11:32 | 44.21401 | 8.77039 | 2167 ft | 201 kts | 322° |
| 2026-04-22 11:32 | 44.22484 | 8.75803 | 2015 ft | 201 kts | 323° |
| 2026-04-22 11:33 | 44.23575 | 8.74575 | 1871 ft | 201 kts | 323° |
| 2026-04-22 11:33 | 44.24662 | 8.73338 | 1727 ft | 202 kts | 324° |
| 2026-04-22 11:33 | 44.25893 | 8.72420 | 1574 ft | 201 kts | 342° |
| 2026-04-22 11:33 | 44.27195 | 8.71763 | 1502 ft | 195 kts | 343° |
| 2026-04-22 11:34 | 44.28446 | 8.71124 | 1531 ft | 187 kts | 343° |
| 2026-04-22 11:34 | 44.29651 | 8.70529 | 1546 ft | 181 kts | 347° |
| 2026-04-22 11:34 | 44.30865 | 8.70168 | 1551 ft | 177 kts | 352° |
| 2026-04-22 11:34 | 44.32073 | 8.69852 | 1543 ft | 176 kts | 352° |
| 2026-04-22 11:35 | 44.33269 | 8.69542 | 1550 ft | 174 kts | 352° |
| 2026-04-22 11:35 | 44.34457 | 8.69235 | 1550 ft | 173 kts | 352° |
| 2026-04-22 11:35 | 44.35636 | 8.68929 | 1550 ft | 172 kts | 352° |
| 2026-04-22 11:35 | 44.36808 | 8.69041 | 1552 ft | 171 kts | 26° |
| 2026-04-22 11:36 | 44.37540 | 8.70312 | 1163 ft | 189 kts | 73° |
| 2026-04-22 11:36 | 44.38198 | 8.71761 | 1234 ft | 167 kts | 46° |
| 2026-04-22 11:36 | 44.38943 | 8.72957 | 1221 ft | 159 kts | 47° |
| 2026-04-22 11:36 | 44.39679 | 8.74018 | 1214 ft | 145 kts | 44° |
| 2026-04-22 11:37 | 44.40375 | 8.75018 | 1061 ft | 141 kts | 46° |
| 2026-04-22 11:37 | 44.41070 | 8.76023 | 847 ft | 146 kts | 48° |
| 2026-04-22 11:37 | 44.41575 | 8.77049 | 838 ft | 113 kts | 58° |
| 2026-04-22 11:37 | 44.41756 | 8.77932 | 704 ft | 93 kts | 81° |
| 2026-04-22 11:38 | 44.41824 | 8.78860 | 498 ft | 98 kts | 79° |
| 2026-04-22 11:38 | 44.41840 | 8.79873 | 371 ft | 103 kts | 83° |
| 2026-04-22 11:38 | 44.41626 | 8.81729 | 93 ft | 97 kts | 94° |
| 2026-04-22 11:39 | 44.41489 | 8.82657 | 46 ft | 98 kts | 98° |
| 2026-04-22 11:39 | 44.41338 | 8.83464 | 16 ft | 67 kts | 103° |
| 2026-04-22 11:39 | 44.41277 | 8.83764 | 15 ft | 18 kts | 99° |
| 2026-04-22 11:39 | 44.41267 | 8.83836 | 15 ft | 4 kts | 85° |
| 2026-04-22 11:40 | 44.41239 | 8.83980 | 15 ft | 28 kts | 105° |
| 2026-04-22 11:40 | 44.41198 | 8.84226 | 17 ft | 6 kts | 31° |
| 2026-04-22 11:40 | 44.41273 | 8.84331 | 15 ft | 15 kts | 50° |
| 2026-04-22 11:40 | 44.41345 | 8.84459 | 15 ft | 10 kts | 52° |
| 2026-04-22 11:41 | 44.41370 | 8.84505 | 15 ft | 4 kts | 51° |
| 2026-04-22 11:41 | 44.41412 | 8.84584 | 15 ft | 16 kts | 69° |
| 2026-04-22 11:41 | 44.41385 | 8.84776 | 15 ft | 24 kts | 105° |
| 2026-04-22 11:41 | 44.41339 | 8.85032 | 15 ft | 30 kts | 105° |
| 2026-04-22 11:42 | 44.41306 | 8.85197 | 15 ft | 14 kts | 140° |
| 2026-04-22 11:42 | 44.41326 | 8.85093 | 15 ft | 19 kts | 283° |
| 2026-04-22 11:42 | 44.41363 | 8.84888 | 15 ft | 24 kts | 285° |
| 2026-04-22 11:42 | 44.41411 | 8.84648 | 15 ft | 25 kts | 285° |
| 2026-04-22 11:43 | 44.41457 | 8.84666 | 15 ft | 12 kts | 52° |
| 2026-04-22 11:43 | 44.41522 | 8.84784 | 15 ft | 17 kts | 54° |
| 2026-04-22 11:43 | 44.41594 | 8.84907 | 15 ft | 16 kts | 49° |
| 2026-04-22 11:43 | 44.41661 | 8.84947 | 15 ft | 1 kts | 251° |
| 2026-04-22 11:44 | 44.41671 | 8.84924 | 15 ft | 1 kts | 333° |
| 2026-04-22 11:44 | 44.41673 | 8.84911 | 15 ft | 2 kts | 218° |
| 2026-04-22 11:44 | 44.41668 | 8.84911 | 15 ft | 1 kts | 142° |
| 2026-04-22 11:44 | 44.41663 | 8.84925 | 15 ft | 0 kts | 134° |